Time;durP1;ratioP1;P1;durP2;ratioP2;P2;SDS_P1;SDS_P2;PMS_P1;PMS_P2;Temp;Humidity;BMP_temperature;BMP_pressure;BME280_temperature;BME280_humidity;BME280_pressure;Samples;Min_cycle;Max_cycle;Signal;HPM_P1;HPM_P2
2021/12/04 00:02:43;;;;;;;12.93;6.20;;;;;0.40;95321.00;;;;8361495;28;20244;-78
2021/12/04 00:07:21;;;;;;;10.20;6.10;;;;;0.50;95319.00;;;;8361262;28;20224;-78
2021/12/04 00:11:24;;;;;;;14.50;6.23;;;;;0.50;95304.00;;;;8360897;28;20213;-79
2021/12/04 00:15:29;;;;;;;11.77;6.00;;;;;0.60;95300.00;;;;8361010;28;20222;-80
2021/12/04 00:20:04;;;;;;;10.30;5.70;;;;;0.60;95293.00;;;;8361568;28;20562;-79
2021/12/04 00:24:07;;;;;;;9.80;5.53;;;;;0.60;95290.00;;;;8361015;28;20212;-81
2021/12/04 00:28:41;;;;;;;11.73;6.37;;;;;0.60;95283.00;;;;8361066;28;20220;-82
2021/12/04 00:32:55;;;;;;;10.53;5.93;;;;;0.60;95293.00;;;;8361500;28;20224;-81
2021/12/04 00:37:51;;;;;;;13.43;6.73;;;;;0.60;95281.00;;;;8360816;28;20225;-82
2021/12/04 00:51:05;;;;;;;14.07;7.00;;;;;0.50;95259.00;;;;8368109;28;20239;-85
2021/12/04 00:55:09;;;;;;;13.77;6.70;;;;;0.60;95257.00;;;;8395164;28;20212;-79
2021/12/04 00:59:43;;;;;;;12.73;7.07;;;;;0.70;95243.00;;;;8385508;28;20228;-83
2021/12/04 01:03:46;;;;;;;14.53;6.73;;;;;0.70;95236.00;;;;8367522;28;20241;-85
2021/12/04 01:07:51;;;;;;;12.33;7.03;;;;;0.70;95231.00;;;;8366944;28;20624;-86
2021/12/04 01:12:25;;;;;;;12.93;6.67;;;;;0.80;95230.00;;;;8366807;28;20228;-83
2021/12/04 01:16:28;;;;;;;15.83;6.97;;;;;0.70;95220.00;;;;8367088;28;20220;-84
2021/12/04 01:21:05;;;;;;;15.03;7.43;;;;;0.70;95215.00;;;;8370438;28;20227;-82
2021/12/04 01:25:10;;;;;;;17.83;7.57;;;;;0.60;95202.00;;;;8367235;28;20228;-85
2021/12/04 01:29:47;;;;;;;20.60;8.30;;;;;0.60;95191.00;;;;8367927;28;20243;-86
2021/12/04 01:34:25;;;;;;;14.30;6.93;;;;;0.50;95182.00;;;;8369859;28;20221;-84
2021/12/04 01:38:28;;;;;;;19.00;7.93;;;;;0.50;95186.00;;;;8370477;28;20677;-84
2021/12/04 01:42:35;;;;;;;14.40;7.37;;;;;0.50;95173.00;;;;8367498;28;20669;-83
2021/12/04 01:46:38;;;;;;;18.60;7.37;;;;;0.60;95167.00;;;;8366384;28;20225;-83
2021/12/04 01:51:16;;;;;;;16.20;7.67;;;;;0.60;95143.00;;;;8365347;28;20223;-83
2021/12/04 01:55:52;;;;;;;17.00;8.13;;;;;0.70;95150.00;;;;8365539;28;20224;-79
2021/12/04 01:59:57;;;;;;;15.53;7.80;;;;;0.70;95167.00;;;;8365472;28;20216;-80
2021/12/04 02:04:31;;;;;;;16.07;7.77;;;;;0.70;95148.00;;;;8365569;28;20213;-83
2021/12/04 02:08:34;;;;;;;14.87;7.73;;;;;0.70;95142.00;;;;8365044;28;20228;-83
2021/12/04 02:12:38;;;;;;;14.60;8.07;;;;;0.80;95131.00;;;;8364909;28;20225;-81
2021/12/04 02:16:43;;;;;;;18.00;9.43;;;;;0.70;95124.00;;;;8364166;28;20227;-77
2021/12/04 02:20:48;;;;;;;18.00;9.73;;;;;0.70;95116.00;;;;8364258;28;20220;-83
2021/12/04 02:24:51;;;;;;;17.50;8.43;;;;;0.70;95111.00;;;;8363565;28;20229;-82
2021/12/04 02:28:57;;;;;;;20.73;8.73;;;;;0.80;95113.00;;;;8364919;28;20224;-79
2021/12/04 02:33:30;;;;;;;15.03;7.60;;;;;0.80;95097.00;;;;8364316;28;20217;-79
2021/12/04 02:37:36;;;;;;;17.07;8.50;;;;;0.90;95101.00;;;;8363803;28;20302;-81
2021/12/04 02:41:40;;;;;;;15.57;8.17;;;;;0.90;95092.00;;;;8364436;28;20228;-79
2021/12/04 02:45:44;;;;;;;14.83;8.27;;;;;0.80;95097.00;;;;8371317;28;20240;-82
2021/12/04 02:50:18;;;;;;;13.20;7.70;;;;;0.80;95109.00;;;;8373009;28;20231;-79
2021/12/04 02:54:22;;;;;;;15.00;8.23;;;;;0.80;95110.00;;;;8363596;28;20213;-77
2021/12/04 02:59:01;;;;;;;12.40;7.37;;;;;0.80;95091.00;;;;8363095;28;20220;-79
2021/12/04 03:03:04;;;;;;;16.60;8.07;;;;;0.80;95083.00;;;;8384383;22;20259;-80
2021/12/04 03:07:08;;;;;;;15.83;7.73;;;;;0.80;95077.00;;;;8379871;28;20239;-79
2021/12/04 03:11:12;;;;;;;14.63;8.20;;;;;0.80;95077.00;;;;8379808;28;20621;-76
2021/12/04 03:15:17;;;;;;;14.53;7.47;;;;;0.80;95064.00;;;;8379933;28;20996;-76
2021/12/04 03:19:20;;;;;;;13.90;7.37;;;;;0.80;95059.00;;;;8381826;28;20270;-74
2021/12/04 03:23:28;;;;;;;19.40;7.23;;;;;0.90;95041.00;;;;8380801;28;20711;-74
2021/12/04 03:27:33;;;;;;;13.53;6.77;;;;;0.90;95032.00;;;;8381528;28;20814;-74
2021/12/04 03:31:53;;;;;;;13.90;6.63;;;;;0.90;95016.00;;;;8379894;28;20665;-74
2021/12/04 03:40:37;;;;;;;13.93;6.63;;;;;0.90;94991.00;;;;8369732;28;20259;-74
2021/12/04 03:44:42;;;;;;;13.83;6.63;;;;;1.00;94990.00;;;;8378573;28;20251;-75
2021/12/04 03:48:52;;;;;;;12.67;6.30;;;;;1.00;94983.00;;;;8375200;28;20322;-76
2021/12/04 03:52:55;;;;;;;12.73;6.67;;;;;1.00;94982.00;;;;8372170;28;20227;-77
2021/12/04 03:57:03;;;;;;;9.97;6.20;;;;;1.00;94983.00;;;;8379690;28;20715;-76
2021/12/04 04:01:08;;;;;;;13.03;6.77;;;;;1.10;94977.00;;;;8365221;28;20589;-74
2021/12/04 04:05:12;;;;;;;20.27;6.47;;;;;1.10;94972.00;;;;8337703;28;20228;-76
2021/12/04 04:09:16;;;;;;;11.97;6.23;;;;;1.10;94955.00;;;;8353938;28;20315;-76
2021/12/04 04:13:19;;;;;;;10.33;5.90;;;;;1.10;94945.00;;;;8342468;28;20255;-77
2021/12/04 04:17:26;;;;;;;13.87;6.50;;;;;1.10;94949.00;;;;8344516;28;20831;-76
2021/12/04 04:21:29;;;;;;;11.63;6.07;;;;;1.10;94923.00;;;;8344483;28;20248;-76
2021/12/04 04:25:32;;;;;;;10.53;6.13;;;;;1.20;94926.00;;;;8363257;28;20228;-76
2021/12/04 04:29:35;;;;;;;8.93;5.30;;;;;1.20;94922.00;;;;8353812;28;20256;-76
2021/12/04 04:33:40;;;;;;;13.27;6.00;;;;;1.20;94917.00;;;;8339555;28;20237;-75
2021/12/04 04:37:51;;;;;;;13.37;6.23;;;;;1.20;94907.00;;;;8331694;28;20261;-75
2021/12/04 04:59:30;;;;;;;12.77;6.20;;;;;1.30;94883.00;;;;8347099;28;20267;-72
2021/12/04 05:12:22;;;;;;;9.77;5.33;;;;;1.30;94869.00;;;;8341706;28;20319;-73
2021/12/04 05:16:30;;;;;;;9.83;5.60;;;;;1.30;94873.00;;;;8338880;28;20352;-73
2021/12/04 05:20:36;;;;;;;11.77;5.80;;;;;1.30;94867.00;;;;8350824;28;20224;-72
2021/12/04 05:24:42;;;;;;;13.40;5.80;;;;;1.40;94868.00;;;;8345450;28;20307;-73
2021/12/04 05:28:46;;;;;;;11.53;5.73;;;;;1.40;94861.00;;;;8346909;28;20236;-73
2021/12/04 05:32:49;;;;;;;11.33;5.47;;;;;1.40;94851.00;;;;8348175;28;20312;-73
2021/12/04 05:36:52;;;;;;;9.73;5.00;;;;;1.40;94847.00;;;;8360077;28;20316;-73
2021/12/04 05:40:57;;;;;;;12.83;5.70;;;;;1.40;94845.00;;;;8356000;28;20678;-73
2021/12/04 05:45:00;;;;;;;15.97;5.67;;;;;1.50;94837.00;;;;8351503;28;20259;-73
2021/12/04 05:49:08;;;;;;;9.30;5.50;;;;;1.50;94842.00;;;;8346354;28;20245;-75
2021/12/04 05:53:21;;;;;;;9.27;5.50;;;;;1.60;94838.00;;;;8346854;28;20760;-72
2021/12/04 05:57:26;;;;;;;7.47;4.60;;;;;1.60;94833.00;;;;8355811;28;20231;-72
2021/12/04 06:01:30;;;;;;;7.37;5.13;;;;;1.60;94846.00;;;;8348910;28;20264;-73
2021/12/04 06:05:36;;;;;;;9.20;4.83;;;;;1.60;94848.00;;;;8352099;28;20263;-72
2021/12/04 06:09:39;;;;;;;6.63;4.50;;;;;1.70;94848.00;;;;8354493;28;20679;-73
2021/12/04 06:13:44;;;;;;;6.57;4.30;;;;;1.70;94849.00;;;;8349573;28;20244;-72
2021/12/04 06:17:49;;;;;;;8.50;4.77;;;;;1.70;94837.00;;;;8362360;28;20229;-72
2021/12/04 06:26:13;;;;;;;10.77;4.93;;;;;1.80;94845.00;;;;8347906;28;20303;-73
2021/12/04 06:30:19;;;;;;;6.90;4.70;;;;;1.80;94839.00;;;;8370660;28;20316;-72
2021/12/04 06:34:22;;;;;;;8.77;5.27;;;;;1.80;94843.00;;;;8359662;28;20255;-72
2021/12/04 06:38:25;;;;;;;9.00;4.83;;;;;1.80;94849.00;;;;8348483;28;20256;-72
2021/12/04 06:42:29;;;;;;;14.47;6.40;;;;;1.80;94837.00;;;;8353992;28;20223;-73
2021/12/04 06:46:35;;;;;;;13.60;6.03;;;;;1.80;94843.00;;;;8354138;28;20251;-74
2021/12/04 06:50:43;;;;;;;12.23;5.93;;;;;1.80;94845.00;;;;8348630;28;20244;-73
2021/12/04 06:54:51;;;;;;;11.77;6.30;;;;;1.70;94840.00;;;;8349953;28;20275;-69
2021/12/04 06:58:54;;;;;;;12.03;6.00;;;;;1.70;94833.00;;;;8345898;28;20271;-72
2021/12/04 07:02:59;;;;;;;10.47;5.50;;;;;1.70;94832.00;;;;8355949;28;20327;-71
2021/12/04 07:07:03;;;;;;;10.63;6.37;;;;;1.70;94835.00;;;;8349243;28;20234;-71
2021/12/04 07:11:07;;;;;;;12.83;6.20;;;;;1.60;94833.00;;;;8356775;28;20554;-72
2021/12/04 07:15:12;;;;;;;9.30;5.57;;;;;1.60;94820.00;;;;8346735;28;20311;-72
2021/12/04 07:19:17;;;;;;;7.63;4.97;;;;;1.60;94816.00;;;;8341810;28;20904;-70
2021/12/04 07:23:20;;;;;;;10.83;5.70;;;;;1.60;94821.00;;;;8348831;28;21581;-72
2021/12/04 07:27:23;;;;;;;8.93;5.07;;;;;1.70;94812.00;;;;8354759;28;20221;-72
2021/12/04 07:31:26;;;;;;;9.57;4.53;;;;;1.70;94796.00;;;;8347034;28;20586;-75
2021/12/04 07:35:35;;;;;;;9.23;5.80;;;;;1.70;94799.00;;;;8348751;28;20711;-72
2021/12/04 07:39:39;;;;;;;9.80;5.80;;;;;1.70;94802.00;;;;8351582;28;20238;-72
2021/12/04 07:43:42;;;;;;;10.43;5.90;;;;;1.70;94790.00;;;;8344337;28;20739;-71
2021/12/04 07:47:46;;;;;;;11.60;6.40;;;;;1.80;94792.00;;;;8347656;28;20271;-74
2021/12/04 07:51:51;;;;;;;10.80;6.63;;;;;1.80;94791.00;;;;8345792;28;20255;-72
2021/12/04 07:55:54;;;;;;;10.00;5.73;;;;;1.80;94773.00;;;;8348650;28;20336;-72
2021/12/04 07:59:57;;;;;;;11.00;5.20;;;;;1.90;94774.00;;;;8346174;28;20241;-71
2021/12/04 08:04:01;;;;;;;9.50;5.93;;;;;1.90;94771.00;;;;8345412;28;20251;-71
2021/12/04 08:08:06;;;;;;;10.83;6.60;;;;;1.90;94779.00;;;;8353457;28;20308;-69
2021/12/04 08:12:10;;;;;;;13.13;6.77;;;;;2.00;94769.00;;;;8346329;28;20232;-71
2021/12/04 08:16:13;;;;;;;8.30;5.23;;;;;2.00;94762.00;;;;8348654;28;20599;-71
2021/12/04 08:20:18;;;;;;;11.17;6.73;;;;;2.10;94757.00;;;;8347266;28;20319;-69
2021/12/04 08:24:22;;;;;;;7.77;5.63;;;;;2.10;94760.00;;;;8354199;28;20232;-73
2021/12/04 08:28:25;;;;;;;11.70;6.40;;;;;2.20;94749.00;;;;8359196;28;20851;-71
2021/12/04 08:32:29;;;;;;;14.37;7.47;;;;;2.20;94755.00;;;;8348143;28;20329;-72
2021/12/04 08:36:33;;;;;;;10.40;6.97;;;;;2.30;94753.00;;;;8357604;28;20346;-69
2021/12/04 08:40:39;;;;;;;9.43;6.63;;;;;2.30;94750.00;;;;8346037;28;20246;-72
2021/12/04 08:44:43;;;;;;;9.37;6.70;;;;;2.40;94746.00;;;;8362864;28;20224;-70
2021/12/04 08:48:47;;;;;;;12.20;7.00;;;;;2.40;94742.00;;;;8342775;28;20240;-71
2021/12/04 08:52:50;;;;;;;10.83;6.97;;;;;2.50;94743.00;;;;8344676;28;20276;-72
2021/12/04 08:56:55;;;;;;;11.20;6.37;;;;;2.60;94736.00;;;;8342310;28;20237;-69
2021/12/04 09:01:00;;;;;;;12.47;7.33;;;;;2.60;94738.00;;;;8341832;28;20233;-71
2021/12/04 09:05:05;;;;;;;10.07;6.63;;;;;2.60;94720.00;;;;8353948;28;20279;-70
2021/12/04 09:09:10;;;;;;;10.80;6.47;;;;;2.70;94727.00;;;;8352157;28;20291;-70
2021/12/04 09:13:16;;;;;;;16.60;7.63;;;;;2.70;94721.00;;;;8348665;28;20663;-71
2021/12/04 09:17:22;;;;;;;13.57;7.30;;;;;2.70;94721.00;;;;8342678;28;20695;-70
2021/12/04 09:21:27;;;;;;;10.77;6.00;;;;;2.80;94727.00;;;;8347183;28;20304;-71
2021/12/04 09:25:33;;;;;;;13.07;7.77;;;;;2.80;94719.00;;;;8347871;28;20226;-71
2021/12/04 09:29:47;;;;;;;10.70;6.63;;;;;2.80;94720.00;;;;8348357;28;20244;-71
2021/12/04 10:00:11;;;;;;;14.87;7.87;;;;;3.00;94688.00;;;;8380489;28;20375;-70
2021/12/04 10:17:36;;;;;;;12.77;7.67;;;;;3.20;94673.00;;;;8352721;28;20243;-72
2021/12/04 10:21:54;;;;;;;12.53;7.90;;;;;3.20;94671.00;;;;8352391;28;20321;-70
2021/12/04 10:34:39;;;;;;;14.03;7.63;;;;;3.20;94652.00;;;;8358454;28;20252;-74
2021/12/04 10:38:45;;;;;;;13.37;7.57;;;;;3.20;94650.00;;;;8351847;28;20266;-73
2021/12/04 10:42:51;;;;;;;14.60;7.40;;;;;3.10;94645.00;;;;8348305;28;20218;-73
2021/12/04 10:46:59;;;;;;;10.80;6.53;;;;;3.10;94639.00;;;;8351753;28;20232;-73
2021/12/04 10:51:17;;;;;;;13.63;8.43;;;;;3.20;94629.00;;;;8351167;28;20254;-73
2021/12/04 10:55:26;;;;;;;15.67;7.70;;;;;3.20;94619.00;;;;8351495;28;20307;-73
2021/12/04 10:59:43;;;;;;;13.20;7.37;;;;;3.20;94616.00;;;;8372849;28;20695;-71
2021/12/04 11:03:56;;;;;;;12.33;7.17;;;;;3.20;94610.00;;;;8358335;28;20326;-72
2021/12/04 11:38:41;;;;;;;16.17;8.13;;;;;3.10;94558.00;;;;8339613;28;20304;-72
2021/12/04 11:42:47;;;;;;;15.10;7.80;;;;;3.20;94551.00;;;;8332251;28;20236;-75
2021/12/04 11:46:56;;;;;;;12.93;7.60;;;;;3.20;94547.00;;;;8327458;28;20221;-72
2021/12/04 11:51:00;;;;;;;19.43;8.80;;;;;3.20;94549.00;;;;8337863;28;20712;-71
2021/12/04 11:55:09;;;;;;;11.10;6.70;;;;;3.10;94545.00;;;;8348112;28;20256;-72
2021/12/04 11:59:12;;;;;;;15.33;6.57;;;;;3.10;94540.00;;;;8368191;28;20258;-70
2021/12/04 12:03:19;;;;;;;14.93;7.43;;;;;3.10;94535.00;;;;8352249;28;20254;-70
2021/12/04 12:07:24;;;;;;;14.70;7.03;;;;;3.10;94536.00;;;;8355931;28;20239;-71
2021/12/04 12:11:29;;;;;;;13.60;7.40;;;;;3.10;94527.00;;;;8347695;28;20261;-72
2021/12/04 12:15:36;;;;;;;15.13;7.63;;;;;3.10;94525.00;;;;8348828;28;20258;-73
2021/12/04 12:19:51;;;;;;;11.93;7.60;;;;;3.20;94504.00;;;;8349533;28;21756;-72
2021/12/04 12:37:22;;;;;;;14.03;7.40;;;;;3.30;94473.00;;;;8346500;28;20261;-71
2021/12/04 12:41:28;;;;;;;16.70;7.60;;;;;3.30;94473.00;;;;8357878;28;20723;-73
2021/12/04 12:45:34;;;;;;;13.60;6.87;;;;;3.30;94477.00;;;;8341570;28;20295;-71
2021/12/04 12:49:39;;;;;;;12.07;7.50;;;;;3.20;94468.00;;;;8354874;28;20260;-71
2021/12/04 12:53:47;;;;;;;8.80;5.90;;;;;3.20;94465.00;;;;8353880;28;20246;-73
2021/12/04 12:57:50;;;;;;;16.93;8.23;;;;;3.10;94465.00;;;;8368379;28;20271;-73
2021/12/04 13:15:35;;;;;;;12.13;6.53;;;;;3.00;94463.00;;;;8353616;28;20252;-70
2021/12/04 13:19:40;;;;;;;9.27;5.80;;;;;3.00;94461.00;;;;8329172;28;20632;-73
2021/12/04 13:23:49;;;;;;;9.03;5.93;;;;;3.00;94460.00;;;;8345910;28;20262;-76
2021/12/04 13:32:03;;;;;;;11.20;5.83;;;;;3.00;94455.00;;;;8356770;28;20250;-76
2021/12/04 13:36:13;;;;;;;9.47;6.10;;;;;2.90;94458.00;;;;8369818;28;20237;-76
2021/12/04 13:40:19;;;;;;;8.73;5.57;;;;;3.00;94449.00;;;;8353623;28;20242;-75
2021/12/04 13:44:26;;;;;;;6.87;4.90;;;;;2.90;94449.00;;;;8358095;28;20234;-74
2021/12/04 13:48:31;;;;;;;10.27;5.50;;;;;2.90;94443.00;;;;8381875;28;20226;-74
2021/12/04 13:52:34;;;;;;;9.80;5.57;;;;;2.90;94440.00;;;;8353038;28;20744;-74
2021/12/04 13:56:38;;;;;;;8.93;5.97;;;;;2.90;94441.00;;;;8359143;28;20306;-75
2021/12/04 14:00:44;;;;;;;6.97;4.93;;;;;2.90;94447.00;;;;8339295;28;20246;-74
2021/12/04 14:04:56;;;;;;;8.53;5.00;;;;;2.90;94429.00;;;;8364089;28;20342;-75
2021/12/04 14:09:01;;;;;;;16.40;5.53;;;;;2.90;94440.00;;;;8366765;28;20752;-75
2021/12/04 14:13:05;;;;;;;8.13;5.90;;;;;2.90;94440.00;;;;8351880;28;20691;-76
2021/12/04 14:17:13;;;;;;;9.27;5.10;;;;;2.80;94429.00;;;;8352956;28;20236;-77
2021/12/04 14:21:16;;;;;;;8.47;5.40;;;;;2.80;94427.00;;;;8336325;28;20309;-76
2021/12/04 14:25:21;;;;;;;6.87;4.63;;;;;2.80;94433.00;;;;8352871;28;20641;-76
2021/12/04 14:29:26;;;;;;;8.83;5.07;;;;;2.80;94421.00;;;;8352944;28;20261;-75
2021/12/04 14:33:30;;;;;;;7.37;4.67;;;;;2.70;94413.00;;;;8352131;28;20246;-76
2021/12/04 14:37:35;;;;;;;9.77;5.80;;;;;2.70;94415.00;;;;8351432;28;20269;-76
2021/12/04 14:41:38;;;;;;;8.83;4.57;;;;;2.70;94409.00;;;;8369238;28;20313;-77
2021/12/04 14:45:44;;;;;;;6.90;4.77;;;;;2.70;94410.00;;;;8367590;28;20763;-78
2021/12/04 14:49:51;;;;;;;5.93;3.87;;;;;2.70;94409.00;;;;8353466;28;20310;-79
2021/12/04 14:53:58;;;;;;;5.43;3.67;;;;;2.70;94407.00;;;;8354557;28;20330;-83
2021/12/04 14:58:05;;;;;;;6.87;3.53;;;;;2.70;94409.00;;;;8351775;28;20678;-81
2021/12/04 15:02:15;;;;;;;6.57;3.97;;;;;2.70;94396.00;;;;8354615;28;20227;-80
2021/12/04 15:06:22;;;;;;;12.47;5.50;;;;;2.70;94396.00;;;;8362481;28;20233;-81
2021/12/04 15:10:25;;;;;;;5.63;3.43;;;;;2.70;94410.00;;;;8328436;28;20260;-83
2021/12/04 15:14:35;;;;;;;330.20;138.70;;;;;2.70;94412.00;;;;8336738;28;21055;-78
2021/12/04 15:18:41;;;;;;;17.87;13.43;;;;;2.70;94410.00;;;;8347686;28;20247;-79
2021/12/04 15:23:08;;;;;;;10.87;6.93;;;;;2.70;94411.00;;;;8347361;28;20241;-83
2021/12/04 15:27:14;;;;;;;42.97;20.67;;;;;2.60;94405.00;;;;8335100;28;20240;-75
2021/12/04 15:31:24;;;;;;;17.50;11.87;;;;;2.60;94398.00;;;;8337837;28;20276;-81
2021/12/04 15:35:33;;;;;;;230.07;117.63;;;;;2.60;94407.00;;;;8330573;28;20237;-84
2021/12/04 15:39:41;;;;;;;51.30;33.93;;;;;2.60;94408.00;;;;8334785;28;20229;-83
2021/12/04 15:43:58;;;;;;;13.60;9.80;;;;;2.60;94397.00;;;;8330528;28;20260;-81
2021/12/04 15:48:41;;;;;;;11.53;6.07;;;;;2.60;94393.00;;;;8328643;28;20309;-83
2021/12/04 15:52:54;;;;;;;59.77;33.23;;;;;2.60;94389.00;;;;8334145;28;20311;-84
2021/12/04 15:56:59;;;;;;;31.27;20.20;;;;;2.60;94395.00;;;;8329637;28;20316;-83
2021/12/04 16:01:07;;;;;;;8.03;6.27;;;;;2.60;94383.00;;;;8329599;28;20582;-80
2021/12/04 16:05:18;;;;;;;36.97;25.83;;;;;2.60;94382.00;;;;8328184;28;20223;-80
2021/12/04 16:09:26;;;;;;;57.03;44.53;;;;;2.70;94391.00;;;;8332397;28;20253;-79
2021/12/04 16:13:34;;;;;;;22.60;16.83;;;;;2.70;94386.00;;;;8334608;28;20695;-79
2021/12/04 16:17:39;;;;;;;11.60;9.80;;;;;2.70;94393.00;;;;8331970;28;20271;-77
2021/12/04 16:21:43;;;;;;;5.87;4.57;;;;;2.70;94399.00;;;;8331336;28;20230;-77
2021/12/04 16:25:49;;;;;;;7.93;4.13;;;;;2.60;94398.00;;;;8332046;28;20235;-77
2021/12/04 16:29:57;;;;;;;5.23;3.20;;;;;2.70;94401.00;;;;8333043;28;20231;-78
2021/12/04 16:35:04;;;;;;;6.23;4.00;;;;;2.70;94395.00;;;;8324666;28;20244;-81
2021/12/04 16:38:28;;;;;;;9.77;5.37;;;;;2.70;94388.00;;;;8328345;28;20231;-80
2021/12/04 16:42:32;;;;;;;5.57;3.67;;;;;2.70;94398.00;;;;8330338;28;20635;-81
2021/12/04 16:46:57;;;;;;;5.37;4.00;;;;;2.70;94404.00;;;;8330276;28;20234;-82
2021/12/04 16:55:40;;;;;;;9.13;4.87;;;;;2.70;94386.00;;;;8329396;28;20523;-81
2021/12/04 16:59:54;;;;;;;45.27;16.63;;;;;2.70;94384.00;;;;8328612;28;20251;-81
2021/12/04 17:03:59;;;;;;;51.47;20.83;;;;;2.80;94388.00;;;;8328036;28;20258;-81
2021/12/04 17:08:03;;;;;;;16.87;9.00;;;;;2.80;94396.00;;;;8333064;28;20260;-79
2021/12/04 17:12:08;;;;;;;11.17;8.47;;;;;2.80;94390.00;;;;8329264;28;20591;-80
2021/12/04 17:16:16;;;;;;;10.87;6.60;;;;;2.80;94397.00;;;;8314198;28;20618;-82
2021/12/04 17:20:23;;;;;;;8.53;4.77;;;;;2.80;94387.00;;;;8332203;28;20713;-86
2021/12/04 17:24:30;;;;;;;16.70;10.90;;;;;2.80;94387.00;;;;8334760;28;20250;-83
2021/12/04 17:28:36;;;;;;;7.67;5.77;;;;;2.80;94385.00;;;;8335646;28;20734;-87
2021/12/04 17:32:40;;;;;;;20.27;13.53;;;;;2.90;94390.00;;;;8334335;28;20235;-88
2021/12/04 17:36:45;;;;;;;51.30;35.90;;;;;2.90;94384.00;;;;8332440;28;20262;-85
2021/12/04 17:40:48;;;;;;;14.80;11.13;;;;;2.90;94376.00;;;;8336569;28;20694;-84
2021/12/04 17:44:53;;;;;;;11.53;7.70;;;;;2.90;94372.00;;;;8341228;28;20221;-84
2021/12/04 17:49:00;;;;;;;6.07;4.17;;;;;2.90;94375.00;;;;8339195;28;20223;-84
2021/12/04 17:53:05;;;;;;;4.20;3.80;;;;;2.90;94359.00;;;;8337596;28;20713;-81
2021/12/04 17:57:08;;;;;;;5.77;3.17;;;;;3.00;94369.00;;;;8336893;28;20827;-81
2021/12/04 18:01:15;;;;;;;10.03;5.13;;;;;3.00;94376.00;;;;8337337;28;20234;-80
2021/12/04 18:05:24;;;;;;;6.10;4.00;;;;;3.00;94378.00;;;;8337981;28;20325;-78
2021/12/04 18:09:33;;;;;;;6.60;3.83;;;;;3.10;94382.00;;;;8330574;28;20867;-77
2021/12/04 18:13:42;;;;;;;4.83;3.30;;;;;3.20;94372.00;;;;8334113;28;20227;-78
2021/12/04 18:17:45;;;;;;;3.97;3.33;;;;;3.20;94366.00;;;;8334639;28;20241;-79
2021/12/04 18:21:51;;;;;;;4.23;3.37;;;;;3.20;94367.00;;;;8335075;28;20599;-78
2021/12/04 18:25:56;;;;;;;3.00;2.67;;;;;3.30;94366.00;;;;8335022;28;20251;-76
2021/12/04 18:30:00;;;;;;;5.80;3.30;;;;;3.30;94363.00;;;;8343142;28;20233;-75
2021/12/04 18:34:05;;;;;;;6.70;3.57;;;;;3.30;94364.00;;;;8329950;28;20243;-75
2021/12/04 18:38:09;;;;;;;12.70;4.17;;;;;3.40;94367.00;;;;8332281;28;20274;-76
2021/12/04 18:42:14;;;;;;;3.93;2.90;;;;;3.30;94363.00;;;;8329887;28;20238;-77
2021/12/04 18:46:18;;;;;;;3.53;2.67;;;;;3.30;94361.00;;;;8332403;28;20264;-77
2021/12/04 18:50:21;;;;;;;3.83;2.80;;;;;3.20;94358.00;;;;8334053;28;20564;-75
2021/12/04 18:54:26;;;;;;;4.63;3.50;;;;;3.20;94366.00;;;;8333424;28;20651;-75
2021/12/04 18:58:30;;;;;;;4.63;2.93;;;;;3.30;94353.00;;;;8336685;28;20247;-76
2021/12/04 19:02:35;;;;;;;5.20;2.73;;;;;3.30;94353.00;;;;8333522;28;20225;-75
2021/12/04 19:06:39;;;;;;;3.73;3.00;;;;;3.40;94359.00;;;;8337796;28;20287;-75
2021/12/04 19:10:42;;;;;;;4.50;2.60;;;;;3.40;94349.00;;;;8330577;28;20231;-75
2021/12/04 19:14:47;;;;;;;4.53;4.13;;;;;3.40;94344.00;;;;8327536;28;20236;-75
2021/12/04 19:18:51;;;;;;;3.60;3.07;;;;;3.40;94347.00;;;;8338044;28;20221;-75
2021/12/04 19:22:54;;;;;;;4.73;3.10;;;;;3.40;94350.00;;;;8336771;28;20251;-76
2021/12/04 19:26:57;;;;;;;4.87;3.37;;;;;3.40;94354.00;;;;8330281;28;20565;-76
2021/12/04 19:31:11;;;;;;;2.43;2.20;;;;;3.50;94366.00;;;;8327591;28;20586;-76
2021/12/04 19:48:29;;;;;;;5.90;2.83;;;;;3.60;94391.00;;;;8337257;28;20633;-75
2021/12/04 19:52:38;;;;;;;3.03;2.70;;;;;3.70;94387.00;;;;8328959;28;20267;-75
2021/12/04 19:56:48;;;;;;;3.67;2.43;;;;;3.80;94384.00;;;;8332145;28;20262;-74
2021/12/04 20:01:00;;;;;;;2.27;2.07;;;;;3.90;94393.00;;;;8335838;28;20267;-75
2021/12/04 20:05:15;;;;;;;4.80;2.70;;;;;3.90;94385.00;;;;8334856;28;20227;-75
2021/12/04 20:13:46;;;;;;;3.80;3.03;;;;;4.00;94396.00;;;;8332100;28;20217;-76
2021/12/04 20:17:50;;;;;;;3.07;2.77;;;;;4.00;94415.00;;;;8331079;28;20223;-76
2021/12/04 20:21:58;;;;;;;5.13;3.00;;;;;4.00;94423.00;;;;8328072;28;20258;-76
2021/12/04 20:26:08;;;;;;;3.20;2.73;;;;;4.00;94423.00;;;;8327216;28;20900;-77
2021/12/04 20:30:34;;;;;;;3.87;2.30;;;;;4.00;94438.00;;;;8330596;28;20295;-76
2021/12/04 20:52:22;;;;;;;3.07;2.37;;;;;4.00;94454.00;;;;8330548;28;20253;-77
2021/12/04 21:09:58;;;;;;;2.87;2.67;;;;;4.30;94474.00;;;;8352517;28;20231;-82
2021/12/04 21:53:25;;;;;;;0.60;0.60;;;;;5.30;94506.00;;;;8353009;28;20229;-85
2021/12/04 21:57:45;;;;;;;0.53;0.53;;;;;5.40;94524.00;;;;8353750;28;20272;-81
2021/12/04 22:10:40;;;;;;;0.60;0.60;;;;;5.40;94572.00;;;;8344231;28;20227;-80
2021/12/04 22:14:57;;;;;;;0.67;0.57;;;;;5.40;94596.00;;;;8342093;28;20231;-79
2021/12/04 22:58:13;;;;;;;0.60;0.60;;;;;4.90;94630.00;;;;8334797;28;20267;-78
2021/12/04 23:02:19;;;;;;;0.40;0.40;;;;;4.90;94634.00;;;;8342557;28;20255;-81
2021/12/04 23:15:15;;;;;;;0.40;0.40;;;;;4.70;94619.00;;;;8347815;28;20652;-76
2021/12/04 23:32:37;;;;;;;0.47;0.47;;;;;4.60;94652.00;;;;8347423;28;20310;-76
2021/12/04 23:36:53;;;;;;;0.40;0.40;;;;;4.60;94674.00;;;;8349394;28;20628;-77
2021/12/04 23:54:53;;;;;;;0.50;0.50;;;;;4.50;94695.00;;;;8348510;28;20223;-75
